• Join FlightAware (Why Join?)
  • Login
  • US Flag 
09:52AM EST


 

Airport Tracker/Info


-or-


 

Live Flight TrackerFlight Track Log ✈ RPA3392 ✈ 14-Jun-2013 ✈ KDCA - KALB

Flight Track Log - Related Links

Times and Time Zones

All times are in EDT time to prevent confusion due to time zone crossing. See the RPA3392 flight status page for this flight to view local times or setup timezone preferences in your user account.

Time Position Orientation Groundspeed Altitude Reporting Facility
EDT Latitude Longitude Course Direction KTS MPH feet Rate Location/Type
10:25PM 38.8772 -77.0583 90° East 141 162 1,500  Level Washington Center
10:25PM 38.8833 -77.0667 313° West 166 191 1,700 1,440 Climbing Potomac TRACON
10:26PM 38.9333 -77.1167 322° Northwest 235 270 3,500 2,220 Climbing Potomac TRACON
10:27PM 38.9782 -76.6602 57° Northeast  Level FlightAware Approximate
10:27PM 38.9833 -77.1833 314° West 257 296 6,200  Level Potomac TRACON
10:28PM 39.0271 -76.5355 67° East  Level FlightAware Approximate
10:28PM 39.0500 -77.1500 21° North 282 325 8,600  Level Potomac TRACON
10:29PM 39.0764 -76.4106 61° Northeast  Level FlightAware Approximate
10:29PM 39.0333 -77.0500 102° East 302 348 9,100  Level Potomac TRACON
10:30PM 39.1167 -76.2837 90° East  Level FlightAware Approximate
10:30PM 39.0000 -76.9500 113° Southeast 329 379 10,700  Level Potomac TRACON
10:32PM 39.0411 -76.7594 74° East 343 395 13,600 1,860 Climbing Washington Center
10:33PM 39.0653 -76.6369 76° East 343 395 15,700 1,860 Climbing Washington Center
10:34PM 39.0892 -76.5169 76° East 338 389 17,500 1,680 Climbing Washington Center
10:35PM 39.1150 -76.3914 75° East 343 395 19,100 1,500 Climbing Washington Center
10:36PM 39.1408 -76.2661 75° East 349 402 20,600 1,320 Climbing Washington Center
10:37PM 39.1622 -76.1458 77° East 360 414 21,800 1,200 Climbing Washington Center
10:38PM 39.1794 -76.0147 80° East 370 426 23,000 600 Climbing Washington Center
10:39PM 39.1964 -75.8836 80° East 370 426 23,100 660 Climbing Washington Center
10:40PM 39.2592 -75.7900 49° Northeast 343 395 24,400 1,140 Climbing Washington Center
10:41PM 39.3322 -75.7017 43° Northeast 337 388 25,400 1,140 Climbing Washington Center
10:42PM 39.4011 -75.6131 45° Northeast 343 395 26,700 1,200 Climbing Washington Center
10:43PM 39.4697 -75.5217 46° Northeast 348 400 27,900 840 Climbing Washington Center
10:44PM 39.5992 -75.3567 44° Northeast 362 417 29,000 360 Climbing New York Center
10:45PM 39.6717 -75.2589 46° Northeast 362 417 29,000  Level New York Center
10:46PM 39.7400 -75.1633 47° Northeast 362 417 29,000  Level New York Center
10:47PM 39.7975 -75.0750 50° Northeast 362 417 29,000  Level New York Center
10:48PM 39.8700 -74.9714 48° Northeast 362 417 29,000  Level New York Center
10:49PM 39.9400 -74.8753 46° Northeast 362 417 29,000  Level New York Center
10:50PM 40.0125 -74.7683 48° Northeast 362 417 29,000  Level New York Center
10:51PM 40.0803 -74.6692 48° Northeast 362 417 29,000  Level New York Center
10:52PM 40.1439 -74.5806 47° Northeast 362 417 29,000  Level New York Center
10:53PM 40.2158 -74.4811 47° Northeast 368 423 29,000 -240 Level New York Center
10:54PM 40.2953 -74.3983 38° Northeast 368 423 28,600 -540 Descending New York Center
10:55PM 40.3731 -74.3125 40° Northeast 362 417 28,000 -300 Descending New York Center
10:56PM 40.4483 -74.2319 39° Northeast 356 410 28,000  Level New York Center
10:57PM 40.5278 -74.1486 39° Northeast 356 410 28,000  Level New York Center
10:58PM 40.6033 -74.0647 40° Northeast 356 410 28,000 -1,140 Level New York Center
11:00PM 40.7358 -73.9219 39° Northeast 367 422 25,000 -1,500 Descending Boston Center
11:01PM 40.8097 -73.8467 38° Northeast 346 398 24,000 -540 Descending Boston Center
11:02PM 40.8797 -73.7578 44° Northeast 340 391 24,000 -60 Level Boston Center
11:03PM 40.9475 -73.6656 46° Northeast 340 391 23,900 -480 Descending Boston Center
11:04PM 41.0294 -73.6039 30° Northeast 340 391 23,100 -480 Descending Boston Center
11:05PM 41.1253 -73.6083 358° North 321 369 23,000 -480 Descending Boston Center
11:06PM 41.2189 -73.6211 354° North 321 369 22,200 -960 Descending Boston Center
11:07PM 41.3125 -73.6311 355° North 331 381 21,100 -1,140 Descending Boston Center
11:08PM 41.4042 -73.6411 355° North 331 381 20,000 -1,380 Descending Boston Center
11:09PM 41.4894 -73.6539 354° North 316 364 18,400 -1,500 Descending Boston Center
11:10PM 41.5872 -73.6642 356° North 311 358 17,000 -840 Descending Boston Center
11:11PM 41.6642 -73.6739 355° North 311 358 16,800 -900 Descending Boston Center
11:12PM 41.7600 -73.6842 355° North 311 358 15,300 -900 Descending Boston Center
11:13PM 41.8350 -73.6939 354° North 311 358 15,000 -180 Descending Boston Center
11:14PM 41.9306 -73.7069 354° North 311 358 15,000 -360 Level Boston Center
11:15PM 41.9911 -73.7111 357° North 307 353 14,400 -900 Descending Boston Center
11:15PM 42.0056 -73.7142 351° North 311 358 14,100 -1,740 Descending Boston Center
11:16PM 42.0889 -73.7269 354° North 305 351 12,500 -1,680 Descending Boston Center
11:17PM 42.1700 -73.7342 356° North 295 339 11,000 -1,080 Descending Boston Center
11:18PM 42.2492 -73.7442 355° North 285 328 10,400 -1,260 Descending Boston Center
11:19PM 42.3219 -73.7569 353° North 265 305 8,500 -1,800 Descending Boston Center
11:20PM 42.3947 -73.7669 354° North 263 303 6,800 -1,680 Descending Boston Center
11:21PM 42.4675 -73.7769 354° North 260 299 5,200 -1,560 Descending Boston Center
11:22PM 42.5447 -73.7842 356° North 253 291 3,600 -1,320 Descending Boston Center
11:23PM 42.6092 -73.7969 352° North 238 274 2,500 -600 Descending Boston Center
11:24PM 42.6631 -73.8039 355° North 224 258 2,400 -120 Descending Boston Center